Latest Coastal Weather Observations for Cape Leeuwin

IDW60701

Issued at 9:53 pm WST Monday 4 May 2026 (issued every 10 minutes, with the page automatically refreshed every 10 minutes)

About coastal observations | Map of coastal stations | Coastal observations for WA | Marine services | Other Formats
Station Details ID: 009518 Name: CAPE LEEUWIN Lat: -34.37 Lon: 115.14 Height: 13.0 m
Data from the previous 72 hours. | See also: Recent months at Cape Leeuwin
Date/Time
WST
Wind Sea
Height
m
Swell Vis
km
Cloud Weather Temp
°C
Press
MSL
hPa
Rain since
9am
mm
Dir  Spd
kts
Gust
kts
Height
m
Period
s
Dir
04/09:30pm E 18 20 - - - - - - - 17.1 1027.7 0.0
04/09:00pm ESE 15 19 - - - - - - - 17.1 1027.8 0.0
04/08:30pm SE 15 18 - - - - - - - 17.3 1027.7 0.0
04/08:00pm ESE 16 19 - - - - - - - 17.2 1027.7 0.0
04/07:30pm ESE 16 19 - - - - - - - 17.2 1027.8 0.0
04/07:00pm SE 12 16 - - - - - - - 17.3 1027.7 0.0
04/06:30pm SE 11 15 - - - - - - - 17.1 1027.5 0.0
04/06:00pm SE 10 13 - - - - - - - 17.0 1027.3 0.0
04/05:30pm SE 11 13 - - - - - - - 16.8 1027.3 0.0
04/05:00pm SE 10 12 - - - - - - - 17.6 1027.4 0.0
04/04:30pm SE 8 11 - - - - - - - 18.1 1027.5 0.0
04/04:00pm SE 8 11 - - - - - - - 18.6 1027.5 0.0
04/03:30pm SE 7 10 - - - - - - - 19.0 1027.3 0.0
04/03:00pm SE 7 11 - - - - - - - 19.0 1027.4 0.0
04/02:30pm SE 6 8 - - - - - - - 19.2 1027.3 0.0
04/02:00pm ESE 5 6 - - - - - - - 18.7 1027.4 0.0
04/01:30pm ESE 7 9 - - - - - - - 18.7 1027.5 0.0
04/01:00pm E 8 10 - - - - - - - 18.3 1027.8 0.0
04/12:30pm E 9 11 - - - - - - - 18.2 1028.2 0.0
04/12:00pm E 10 12 - - - - - - - 17.7 1028.5 0.0
04/11:30am ENE 9 12 - - - - - - - 18.2 1028.8 0.0
04/11:00am ENE 12 15 - - - - - - - 17.7 1028.9 0.0
04/10:30am ENE 11 14 - - - - - - - 17.3 1029.0 0.0
04/10:00am ENE 11 13 - - - - - - - 17.0 1029.1 0.0
04/09:30am NE 11 14 - - - - - - - 15.5 1029.1 0.0
04/09:00am NE 11 14 - - - - - - - 14.9 1029.1 0.2
04/08:30am NE 13 15 - - - - - - - 13.9 1028.9 0.2
04/08:00am NE 12 17 - - - - - - - 13.2 1028.6 0.2
04/07:30am NE 11 14 - - - - - - - 13.9 1028.4 0.2
04/07:00am ENE 11 13 - - - - - - - 14.0 1028.1 0.2
04/06:30am ENE 10 12 - - - - - - - 13.9 1028.0 0.0
04/06:00am NE 9 11 - - - - - - - 13.5 1027.9 0.0
04/05:30am NE 7 10 - - - - - - - 14.2 1027.9 0.0
04/05:00am ENE 8 10 - - - - - - - 14.2 1028.0 0.0
04/04:30am ENE 8 11 - - - - - - - 14.4 1028.0 0.0
04/04:00am ENE 7 9 - - - - - - - 14.0 1027.9 0.0
04/03:30am ENE 11 14 - - - - - - - 14.4 1027.9 0.0
04/03:00am ENE 11 13 - - - - - - - 14.5 1027.9 0.0
04/02:30am ENE 10 13 - - - - - - - 14.6 1028.1 0.0
04/02:00am ENE 9 11 - - - - - - - 14.9 1028.1 0.0
04/01:30am ENE 8 10 - - - - - - - 15.2 1027.9 0.0
04/01:00am E 7 10 - - - - - - - 15.7 1028.0 0.0
04/12:30am ENE 7 10 - - - - - - - 16.2 1028.0 0.0
04/12:00am ENE 9 13 - - - - - - - 16.3 1027.9 0.0
 
Date/Time
WST
Wind Sea
Height
m
Swell Vis
km
Cloud Weather Temp
°C
Press
MSL
hPa
Rain since
9am
mm
Dir  Spd
kts
Gust
kts
Height
m
Period
s
Dir
03/11:30pm ESE 10 14 - - - - - - - 17.2 1028.0 0.0
03/11:00pm SE 10 13 - - - - - - - 17.0 1028.3 0.0
03/10:30pm SE 11 15 - - - - - - - 16.9 1028.4 0.0
03/10:00pm SE 12 14 - - - - - - - 17.0 1028.2 0.0
03/09:30pm SE 12 15 - - - - - - - 17.0 1028.2 0.0
03/09:00pm SE 11 15 - - - - - - - 17.2 1028.2 0.0
03/08:30pm SE 11 14 - - - - - - - 16.8 1028.1 0.0
03/08:00pm SSE 11 15 - - - - - - - 17.0 1028.1 0.0
03/07:30pm SE 11 14 - - - - - - - 16.7 1027.9 0.0
03/07:00pm SSE 11 14 - - - - - - - 16.6 1027.7 0.0
03/06:30pm SSE 12 15 - - - - - - - 16.5 1027.5 0.0
03/06:00pm SSE 10 13 - - - - - - - 16.6 1027.3 0.0
03/05:30pm SSE 12 14 - - - - - - - 16.9 1027.1 0.0
03/05:00pm SE 11 13 - - - - - - - 17.1 1026.7 0.0
03/04:30pm SE 11 15 - - - - - - - 17.4 1026.6 0.0
03/04:00pm SE 10 13 - - - - - - - 17.7 1026.6 0.0
03/03:30pm SE 10 14 - - - - - - - 17.8 1026.7 0.0
03/03:00pm SE 11 15 - - - - - - - 18.1 1026.7 0.0
03/02:30pm SE 12 15 - - - - - - - 18.1 1026.6 0.0
03/02:00pm SE 10 14 - - - - - - - 18.1 1026.6 0.0
03/01:30pm ESE 11 15 - - - - - - - 18.6 1026.5 0.0
03/01:00pm SE 11 15 - - - - - - - 17.8 1026.8 0.0
03/12:30pm SE 10 15 - - - - - - - 18.0 1027.2 0.0
03/12:00pm ESE 11 15 - - - - - - - 18.3 1027.5 0.0
03/11:30am ESE 12 17 - - - - - - - 18.0 1027.6 0.0
03/11:00am SE 12 17 - - - - - - - 17.5 1027.8 0.0
03/10:30am ESE 12 14 - - - - - - - 17.4 1027.8 0.0
03/10:00am E 10 15 - - - - - - - 16.9 1027.8 0.0
03/09:30am SE 15 19 - - - - - - - 17.1 1027.8 0.0
03/09:00am ESE 15 18 - - - - - - - 16.8 1027.7 3.2
03/08:30am SE 13 18 - - - - - - - 16.8 1027.4 3.2
03/08:00am ESE 14 18 - - - - - - - 16.5 1027.2 3.2
03/07:30am SE 13 17 - - - - - - - 16.2 1026.9 3.2
03/07:00am SE 13 17 - - - - - - - 16.0 1026.6 3.2
03/06:30am ESE 16 19 - - - - - - - 16.3 1026.3 3.2
03/06:00am SE 14 18 - - - - - - Recent precip. 15.5 1026.3 3.2
03/05:30am SE 17 21 - - - - - - - 15.5 1026.2 3.0
03/05:00am SSE 14 19 - - - - - - - 15.1 1025.9 3.0
03/04:30am SSE 17 22 - - - - - - - 15.3 1025.7 3.0
03/04:00am SE 14 17 - - - - - - - 16.0 1025.5 3.0
03/03:30am SSE 16 19 - - - - - - - 15.8 1025.4 3.0
03/03:00am SE 13 18 - - - - - - Recent precip. 15.8 1025.5 3.0
03/02:30am SE 15 19 - - - - - - - 15.8 1025.5 2.8
03/02:00am SE 15 19 - - - - - - - 15.6 1025.6 2.8
03/01:30am SSE 14 19 - - - - - - - 15.6 1025.8 2.8
03/01:00am S 16 21 - - - - - - - 15.5 1025.7 2.4
03/12:30am S 16 21 - - - - - - - 15.7 1025.6 2.2
03/12:00am SSE 15 20 - - - - - - Recent precip. 15.7 1025.6 2.2
 
Date/Time
WST
Wind Sea
Height
m
Swell Vis
km
Cloud Weather Temp
°C
Press
MSL
hPa
Rain since
9am
mm
Dir  Spd
kts
Gust
kts
Height
m
Period
s
Dir
02/11:30pm SSE 13 21 - - - - - - - 15.8 1025.6 2.0
02/11:00pm S 15 20 - - - - - - - 15.9 1025.7 2.0
02/10:30pm S 15 21 - - - - - - - 15.8 1025.7 2.0
02/10:00pm S 13 20 - - - - - - - 16.1 1025.7 1.6
02/09:30pm SSE 15 20 - - - - - - - 15.9 1025.7 1.4
02/09:00pm S 18 24 - - - - - - Rain 15.6 1025.7 1.2
02/08:30pm SSE 14 18 - - - - - - - 16.3 1025.5 1.0
02/08:00pm SSE 8 13 - - - - - - - 15.4 1025.4 1.0
02/07:30pm S 13 17 - - - - - - - 15.5 1025.7 0.8
02/07:00pm SSE 8 11 - - - - - - - 15.3 1025.5 0.6
02/06:30pm S 10 14 - - - - - - - 15.2 1025.5 0.6
02/06:00pm ESE 8 10 - - - - - - - 15.4 1025.1 0.4
02/05:30pm SSE 13 19 - - - - - - - 15.3 1025.1 0.4
02/05:00pm S 14 20 - - - - - - - 16.6 1024.9 0.4
02/04:30pm S 13 18 - - - - - - - 16.9 1024.8 0.4
02/04:00pm S 15 20 - - - - - - - 17.2 1024.8 0.4
02/03:30pm S 11 17 - - - - - - - 17.6 1024.8 0.4
02/03:00pm S 12 17 - - - - - - - 17.2 1024.8 0.4
02/02:30pm S 13 18 - - - - - - - 18.5 1024.9 0.4
02/02:00pm S 12 16 - - - - - - - 18.9 1025.0 0.4
02/01:30pm S 15 20 - - - - - - - 16.9 1025.1 0.4
02/01:00pm S 14 19 - - - - - - - 16.5 1025.3 0.4
02/12:30pm SSW 8 11 - - - - - - - 16.3 1025.8 0.4
02/12:00pm SSE 11 16 - - - - - - Rain 15.2 1026.5 0.4
02/11:38am S 15 24 - - - - - - - 16.4 1026.6 0.0
02/11:30am SSW 9 13 - - - - - - - 18.0 1026.6 0.0
02/11:00am SSW 11 16 - - - - - - - 17.1 1026.8 0.0
02/10:30am SSW 13 18 - - - - - - - 16.0 1026.9 0.0
02/10:00am S 15 19 - - - - - - - 16.1 1027.1 0.0
02/09:30am SSW 14 19 - - - - - - - 15.8 1027.2 0.0
02/09:00am SW 16 20 - - - - - - - 15.7 1026.9 0.6
02/08:30am SSW 17 23 - - - - - - - 14.2 1027.0 0.6
02/08:09am SSW 15 26 - - - - - - - 13.9 1026.9 0.6
02/08:00am S 13 18 - - - - - - - 13.4 1026.8 0.6
02/07:30am SSW 15 21 - - - - - - - 14.1 1026.5 0.4
02/07:00am SSW 13 19 - - - - - - - 14.8 1026.2 0.2
02/06:30am SSW 14 20 - - - - - - - 14.5 1026.2 0.2
02/06:00am S 16 21 - - - - - - - 14.5 1026.1 0.2
02/05:30am SSW 14 21 - - - - - - - 14.6 1025.9 0.2
02/05:00am S 11 20 - - - - - - - 14.9 1025.8 0.2
02/04:30am SSW 15 23 - - - - - - - 14.7 1025.7 0.2
02/04:00am S 14 19 - - - - - - - 14.6 1025.5 0.2
02/03:30am S 14 19 - - - - - - - 14.7 1025.5 0.2
02/03:00am S 14 18 - - - - - - - 14.7 1025.9 0.2
02/02:30am S 12 18 - - - - - - - 14.6 1026.1 0.2
02/02:00am SSW 14 19 - - - - - - - 14.1 1026.1 0.2
02/01:30am S 17 23 - - - - - - - 14.5 1026.2 0.2
02/01:00am S 15 20 - - - - - - - 14.7 1026.2 0.2
02/12:30am S 17 22 - - - - - - - 14.6 1026.0 0.2
02/12:00am S 15 20 - - - - - - - 14.6 1026.0 0.2
 
Date/Time
WST
Wind Sea
Height
m
Swell Vis
km
Cloud Weather Temp
°C
Press
MSL
hPa
Rain since
9am
mm
Dir  Spd
kts
Gust
kts
Height
m
Period
s
Dir
01/11:30pm S 14 19 - - - - - - - 14.5 1025.8 0.2
01/11:00pm S 15 20 - - - - - - - 14.7 1026.0 0.2
01/10:30pm S 14 20 - - - - - - - 14.7 1026.1 0.2
01/10:00pm S 15 20 - - - - - - - 14.7 1026.0 0.2

Other formats

Comma delimited format used in spreadsheet applications
http://www.bom.gov.au/fwo/IDW60701/IDW60701.94601.axf

JavaScript Object Notation format (JSON) in row-major order
http://www.bom.gov.au/fwo/IDW60701/IDW60701.94601.json

Data quality

Most of these data are generated automatically and are frequently updated. Quality checks on data are not normally performed. It is possible for incorrect values to appear. Refer to information at About Latest Weather Observations and please check the disclaimer before using these data.